createdAt,value
2023-12-07T00:00:28.348Z,-5.40
2023-12-07T00:02:55.279Z,-5.40
2023-12-07T00:05:22.211Z,-5.40
2023-12-07T00:07:49.148Z,-5.40
2023-12-07T00:10:16.198Z,-5.40
2023-12-07T00:12:43.458Z,-5.50
2023-12-07T00:15:10.774Z,-5.50
2023-12-07T00:17:37.663Z,-5.60
2023-12-07T00:20:08.317Z,-5.50
2023-12-07T00:22:35.256Z,-5.50
2023-12-07T00:25:02.429Z,-5.50
2023-12-07T00:27:29.311Z,-5.50
2023-12-07T00:29:56.270Z,-5.50
2023-12-07T00:32:23.380Z,-5.50
2023-12-07T00:34:50.785Z,-5.50
2023-12-07T00:37:17.848Z,-5.50
2023-12-07T00:39:44.735Z,-5.60
2023-12-07T00:42:11.626Z,-5.50
2023-12-07T00:44:42.204Z,-5.60
2023-12-07T00:47:09.295Z,-5.60
2023-12-07T00:49:40.813Z,-5.60
2023-12-07T00:52:08.286Z,-5.50
2023-12-07T00:54:35.176Z,-5.50
2023-12-07T00:57:02.161Z,-5.50
2023-12-07T00:59:34.869Z,-5.40
2023-12-07T01:02:06.067Z,-5.40
2023-12-07T01:04:33.829Z,-5.30
2023-12-07T01:07:01.406Z,-5.40
2023-12-07T01:09:28.410Z,-5.50
2023-12-07T01:11:55.632Z,-5.60
2023-12-07T01:14:22.853Z,-5.70
2023-12-07T01:16:49.798Z,-5.90
2023-12-07T01:19:16.791Z,-5.90
2023-12-07T01:21:43.946Z,-5.90
2023-12-07T01:24:15.749Z,-5.90
2023-12-07T01:26:44.004Z,-6.00
2023-12-07T01:29:10.950Z,-5.90
2023-12-07T01:31:37.838Z,-6.00
2023-12-07T01:34:04.914Z,-5.90
2023-12-07T01:36:31.816Z,-6.00
2023-12-07T01:38:59.570Z,-6.00
2023-12-07T01:41:26.852Z,-6.10
2023-12-07T01:43:53.827Z,-6.10
2023-12-07T01:46:21.057Z,-6.10
2023-12-07T01:48:51.330Z,-6.20
2023-12-07T01:51:20.216Z,-6.20
2023-12-07T01:53:48.988Z,-6.10
2023-12-07T01:56:17.353Z,-6.10
2023-12-07T01:58:45.233Z,-6.10
2023-12-07T02:01:13.461Z,-6.00
2023-12-07T02:03:43.777Z,-6.00
2023-12-07T02:06:11.692Z,-5.90
2023-12-07T02:08:42.642Z,-5.90
2023-12-07T02:11:10.998Z,-5.90
2023-12-07T02:13:39.564Z,-5.80
2023-12-07T02:16:14.511Z,-5.90
2023-12-07T02:19:16.543Z,-5.80
2023-12-07T02:21:56.187Z,-5.80
2023-12-07T02:24:24.685Z,-5.90
2023-12-07T02:26:52.096Z,-5.90
2023-12-07T02:29:19.151Z,-5.80
2023-12-07T02:31:46.680Z,-5.70
2023-12-07T02:34:13.743Z,-5.80
2023-12-07T02:36:41.400Z,-5.80
2023-12-07T02:39:10.416Z,-5.70
2023-12-07T02:41:38.338Z,-5.80
2023-12-07T02:44:05.881Z,-5.70
2023-12-07T02:46:33.590Z,-5.70
2023-12-07T02:49:00.690Z,-5.70
2023-12-07T02:51:27.841Z,-5.80
2023-12-07T02:53:54.784Z,-5.80
2023-12-07T02:56:21.638Z,-5.70
2023-12-07T02:58:48.515Z,-5.70
2023-12-07T03:01:15.820Z,-5.80
2023-12-07T03:03:43.410Z,-5.80
2023-12-07T03:06:10.607Z,-5.80
2023-12-07T03:08:37.552Z,-5.90
2023-12-07T03:11:05.972Z,-5.90
2023-12-07T03:13:33.035Z,-6.00
2023-12-07T03:15:59.957Z,-6.10
2023-12-07T03:18:26.956Z,-6.20
2023-12-07T03:20:53.956Z,-6.00
2023-12-07T03:23:21.335Z,-6.00
2023-12-07T03:25:48.315Z,-6.00
2023-12-07T03:28:15.246Z,-6.10
2023-12-07T03:30:42.216Z,-6.00
2023-12-07T03:33:09.189Z,-6.00
2023-12-07T03:35:36.103Z,-6.00
2023-12-07T03:38:03.573Z,-5.90
2023-12-07T03:40:30.455Z,-5.90
2023-12-07T03:42:57.527Z,-6.10
2023-12-07T03:45:24.823Z,-6.20
2023-12-07T03:47:51.851Z,-6.30
2023-12-07T03:50:18.949Z,-6.40
2023-12-07T03:52:45.861Z,-6.40
2023-12-07T03:55:13.033Z,-6.30
2023-12-07T03:57:40.221Z,-6.50
2023-12-07T04:00:11.690Z,-6.50
2023-12-07T04:02:38.578Z,-6.70
2023-12-07T04:05:05.984Z,-6.60
2023-12-07T04:07:32.904Z,-6.70
2023-12-07T04:10:10.065Z,-6.60
2023-12-07T04:12:36.966Z,-6.60
2023-12-07T04:15:04.008Z,-6.60
2023-12-07T04:17:31.092Z,-6.60
2023-12-07T04:19:58.114Z,-6.60
2023-12-07T04:22:25.299Z,-6.70
2023-12-07T04:24:52.392Z,-6.70
2023-12-07T04:27:19.305Z,-6.80
2023-12-07T04:29:46.220Z,-6.70
2023-12-07T04:32:13.186Z,-6.80
2023-12-07T04:34:40.143Z,-6.70
2023-12-07T04:37:07.099Z,-6.70
2023-12-07T04:39:34.016Z,-6.80
2023-12-07T04:42:00.869Z,-6.80
2023-12-07T04:44:27.834Z,-6.70
2023-12-07T04:46:55.305Z,-6.70
2023-12-07T04:49:22.171Z,-6.60
2023-12-07T04:51:49.156Z,-6.70
2023-12-07T04:54:19.648Z,-6.70
2023-12-07T04:56:47.411Z,-6.60
2023-12-07T04:59:14.332Z,-6.60
2023-12-07T05:01:41.322Z,-6.60
2023-12-07T05:04:08.291Z,-6.60
2023-12-07T05:06:36.313Z,-6.60
2023-12-07T05:09:04.026Z,-6.60
2023-12-07T05:11:31.142Z,-6.70
2023-12-07T05:13:58.808Z,-6.60
2023-12-07T05:16:25.910Z,-6.40
2023-12-07T05:18:52.895Z,-6.50
2023-12-07T05:21:19.863Z,-6.50
2023-12-07T05:23:46.863Z,-6.40
2023-12-07T05:26:13.852Z,-6.40
2023-12-07T05:28:40.798Z,-6.20
2023-12-07T05:31:08.241Z,-6.20
2023-12-07T05:33:35.494Z,-6.30
2023-12-07T05:36:04.601Z,-6.30
2023-12-07T05:38:31.786Z,-6.30
2023-12-07T05:40:58.627Z,-6.30
2023-12-07T05:43:25.572Z,-6.30
2023-12-07T05:45:52.526Z,-6.20
2023-12-07T05:48:19.590Z,-6.20
2023-12-07T05:50:46.513Z,-6.20
2023-12-07T05:53:13.447Z,-6.20
2023-12-07T05:55:41.219Z,-6.30
2023-12-07T05:58:08.187Z,-6.20
2023-12-07T06:00:39.116Z,-6.20
2023-12-07T06:03:06.463Z,-6.40
2023-12-07T06:05:36.786Z,-6.30
2023-12-07T06:08:05.269Z,-6.40
2023-12-07T06:10:32.192Z,-6.40
2023-12-07T06:13:01.953Z,-6.40
2023-12-07T06:15:29.109Z,-6.30
2023-12-07T06:17:56.428Z,-6.40
2023-12-07T06:20:23.351Z,-6.20
2023-12-07T06:22:50.342Z,-6.30
2023-12-07T06:25:18.009Z,-6.30
2023-12-07T06:27:45.409Z,-6.40
2023-12-07T06:30:12.721Z,-6.50
2023-12-07T06:32:39.548Z,-6.40
2023-12-07T06:35:07.420Z,-6.40
2023-12-07T06:37:34.918Z,-6.20
2023-12-07T06:40:01.951Z,-6.20
2023-12-07T06:42:28.858Z,-6.20
2023-12-07T06:44:55.795Z,-6.20
2023-12-07T06:47:22.989Z,-6.10
2023-12-07T06:49:52.917Z,-6.10
2023-12-07T06:52:20.805Z,-6.00
2023-12-07T06:54:47.687Z,-6.00
2023-12-07T06:57:14.681Z,-6.00
2023-12-07T06:59:44.569Z,-5.80
2023-12-07T07:02:11.483Z,-5.70
2023-12-07T07:04:38.459Z,-5.70
2023-12-07T07:07:05.921Z,-5.70
2023-12-07T07:09:32.850Z,-5.60
2023-12-07T07:11:59.734Z,-5.90
2023-12-07T07:14:26.700Z,-5.80
2023-12-07T07:16:53.687Z,-5.80
2023-12-07T07:19:20.763Z,-5.70
2023-12-07T07:21:47.875Z,-5.80
2023-12-07T07:24:15.885Z,-5.90
2023-12-07T07:26:43.164Z,-5.80
2023-12-07T07:29:10.089Z,-5.70
2023-12-07T07:31:37.661Z,-5.90
2023-12-07T07:34:05.674Z,-5.80
2023-12-07T07:36:37.803Z,-5.80
2023-12-07T07:39:06.220Z,-5.80
2023-12-07T07:41:33.069Z,-5.70
2023-12-07T07:44:02.378Z,-5.70
2023-12-07T07:46:30.669Z,-5.60
2023-12-07T07:48:57.656Z,-5.50
2023-12-07T07:51:24.733Z,-5.70
2023-12-07T07:53:51.642Z,-5.60
2023-12-07T07:56:18.642Z,-5.60
2023-12-07T07:58:45.937Z,-5.70
2023-12-07T08:01:16.357Z,-5.70
2023-12-07T08:03:43.675Z,-5.60
2023-12-07T08:06:10.665Z,-5.60
2023-12-07T08:08:37.530Z,-5.30
2023-12-07T08:11:06.477Z,-5.10
2023-12-07T08:13:33.537Z,-5.10
2023-12-07T08:16:00.489Z,-5.10
2023-12-07T08:18:27.679Z,-5.30
2023-12-07T08:21:03.886Z,-5.00
2023-12-07T08:23:45.755Z,-5.00
2023-12-07T08:26:43.664Z,-5.00
2023-12-07T08:29:10.819Z,-4.90
2023-12-07T08:31:37.860Z,-4.90
2023-12-07T08:34:07.646Z,-4.90
2023-12-07T08:36:34.612Z,-5.00
2023-12-07T08:39:13.896Z,-4.90
2023-12-07T08:41:46.470Z,-4.80
2023-12-07T08:44:13.601Z,-4.90
2023-12-07T08:46:40.651Z,-4.80
2023-12-07T08:49:07.926Z,-4.80
2023-12-07T08:51:35.880Z,-4.90
2023-12-07T08:54:02.887Z,-4.90
2023-12-07T08:56:29.915Z,-4.90
2023-12-07T08:58:56.888Z,-4.90
2023-12-07T09:01:32.049Z,-4.90
2023-12-07T09:04:00.806Z,-5.00
2023-12-07T09:06:27.977Z,-5.10
2023-12-07T09:08:56.320Z,-5.00
2023-12-07T09:11:23.965Z,-5.10
2023-12-07T09:13:51.102Z,-4.90
2023-12-07T09:16:18.234Z,-4.80
2023-12-07T09:18:47.414Z,-4.90
2023-12-07T09:21:15.431Z,-4.80
2023-12-07T09:23:42.585Z,-4.70
2023-12-07T09:26:10.054Z,-4.80
2023-12-07T09:28:37.087Z,-4.80
2023-12-07T09:31:04.508Z,-4.80
2023-12-07T09:33:31.657Z,-4.80
2023-12-07T09:35:58.676Z,-4.90
2023-12-07T09:38:25.542Z,-4.80
2023-12-07T09:40:56.451Z,-4.90
2023-12-07T09:43:23.452Z,-5.00
2023-12-07T09:45:53.423Z,-5.00
2023-12-07T09:48:21.334Z,-4.90
2023-12-07T09:50:48.773Z,-4.90
2023-12-07T09:53:15.784Z,-5.10
2023-12-07T09:55:42.856Z,-5.10
2023-12-07T09:58:10.192Z,-5.00
2023-12-07T10:00:38.457Z,-4.90
2023-12-07T10:03:10.876Z,-5.00
2023-12-07T10:05:58.322Z,-5.00
2023-12-07T10:08:32.474Z,-5.00
2023-12-07T10:11:25.528Z,-5.00
2023-12-07T10:13:52.867Z,-5.00
2023-12-07T10:16:20.713Z,-5.00
2023-12-07T10:18:47.872Z,-4.90
2023-12-07T10:21:16.034Z,-5.00
2023-12-07T10:23:48.305Z,-4.80
2023-12-07T10:26:20.885Z,-4.90
2023-12-07T10:28:54.354Z,-4.90
2023-12-07T10:31:23.930Z,-4.80
2023-12-07T10:33:51.395Z,-4.90
2023-12-07T10:36:18.452Z,-4.80
2023-12-07T10:38:46.882Z,-4.70
2023-12-07T10:41:16.418Z,-4.70
2023-12-07T10:43:55.307Z,-4.90
2023-12-07T10:46:23.544Z,-4.90
2023-12-07T10:48:55.790Z,-4.80
2023-12-07T10:51:34.313Z,-4.80
2023-12-07T10:54:05.891Z,-4.70
2023-12-07T10:56:47.666Z,-4.80
2023-12-07T11:01:46.946Z,-4.70
2023-12-07T11:04:15.175Z,-4.70
2023-12-07T11:06:48.080Z,-4.80
2023-12-07T11:09:28.977Z,-4.80
2023-12-07T11:12:08.012Z,-4.70
2023-12-07T11:14:35.355Z,-4.60
2023-12-07T11:17:05.029Z,-4.50
2023-12-07T11:19:37.204Z,-4.60
2023-12-07T11:22:07.527Z,-4.60
2023-12-07T11:24:34.503Z,-4.60
2023-12-07T11:27:02.176Z,-4.50
2023-12-07T11:29:33.085Z,-4.60
2023-12-07T11:32:16.679Z,-4.60
2023-12-07T11:34:46.986Z,-4.60
2023-12-07T11:37:20.094Z,-4.70
2023-12-07T11:39:47.284Z,-4.70
2023-12-07T11:42:18.106Z,-4.80
2023-12-07T11:44:52.212Z,-4.80
2023-12-07T11:47:22.032Z,-4.80
2023-12-07T11:49:49.276Z,-4.80
2023-12-07T11:52:19.844Z,-4.80
2023-12-07T11:54:47.759Z,-4.80
2023-12-07T11:57:18.741Z,-4.80
2023-12-07T11:59:46.815Z,-5.00
2023-12-07T12:02:14.612Z,-5.10
2023-12-07T12:04:42.402Z,-5.10
2023-12-07T12:07:09.912Z,-4.90
2023-12-07T12:09:36.833Z,-4.90
2023-12-07T12:12:04.421Z,-4.80
2023-12-07T12:14:31.871Z,-4.80
2023-12-07T12:16:59.192Z,-4.70
2023-12-07T12:19:32.605Z,-4.60
2023-12-07T12:22:06.872Z,-4.70
2023-12-07T12:24:37.177Z,-4.60
2023-12-07T12:27:05.233Z,-4.60
2023-12-07T12:29:34.812Z,-4.50
2023-12-07T12:32:06.903Z,-4.60
2023-12-07T12:34:35.472Z,-4.60
2023-12-07T12:37:06.771Z,-4.40
2023-12-07T12:39:34.954Z,-4.60
2023-12-07T12:42:04.541Z,-4.50
2023-12-07T12:44:37.502Z,-4.50
2023-12-07T12:47:10.590Z,-4.50
2023-12-07T12:49:41.118Z,-4.50
2023-12-07T12:52:12.098Z,-4.40
2023-12-07T12:54:39.197Z,-4.40
2023-12-07T12:57:08.476Z,-4.40
2023-12-07T12:59:36.302Z,-4.40
2023-12-07T13:02:06.769Z,-4.40
2023-12-07T13:07:05.853Z,-4.40
2023-12-07T13:09:33.408Z,-4.40
2023-12-07T13:12:03.443Z,-4.40
2023-12-07T13:14:37.187Z,-4.40
2023-12-07T13:17:05.631Z,-4.40
2023-12-07T13:19:33.315Z,-4.50
2023-12-07T13:22:06.740Z,-4.50
2023-12-07T13:24:33.665Z,-4.50
2023-12-07T13:27:03.274Z,-4.40
2023-12-07T13:29:35.986Z,-4.40
2023-12-07T13:32:05.385Z,-4.40
2023-12-07T13:34:32.554Z,-4.40
2023-12-07T13:36:59.536Z,-4.40
2023-12-07T13:39:30.666Z,-4.30
2023-12-07T13:42:00.809Z,-4.30
2023-12-07T13:44:29.680Z,-4.30
2023-12-07T13:46:59.820Z,-4.30
2023-12-07T13:49:32.855Z,-4.30
2023-12-07T13:52:07.756Z,-4.20
2023-12-07T13:57:09.053Z,-4.30
2023-12-07T13:59:38.341Z,-4.20
2023-12-07T14:02:05.674Z,-4.10
2023-12-07T14:04:32.984Z,-4.20
2023-12-07T14:07:17.801Z,-4.30
2023-12-07T14:09:53.865Z,-4.20
2023-12-07T14:12:25.383Z,-4.30
2023-12-07T14:14:52.591Z,-4.40
2023-12-07T14:17:20.849Z,-4.30
2023-12-07T14:19:50.190Z,-4.30
2023-12-07T14:22:17.897Z,-4.30
2023-12-07T14:24:45.135Z,-4.30
2023-12-07T14:27:12.440Z,-4.30
2023-12-07T14:29:39.359Z,-4.20
2023-12-07T14:32:06.404Z,-4.30
2023-12-07T14:34:35.482Z,-4.30
2023-12-07T14:37:06.758Z,-4.20
2023-12-07T14:39:34.985Z,-4.20
2023-12-07T14:42:01.962Z,-4.30
2023-12-07T14:44:30.359Z,-4.20
2023-12-07T14:46:57.949Z,-4.10
2023-12-07T14:49:25.250Z,-4.10
2023-12-07T14:51:52.669Z,-4.10
2023-12-07T14:54:23.319Z,-4.10
2023-12-07T14:56:55.606Z,-4.10
2023-12-07T14:59:23.141Z,-4.00
2023-12-07T15:01:51.848Z,-4.00
2023-12-07T15:04:28.241Z,-3.90
2023-12-07T15:07:01.629Z,-3.90
2023-12-07T15:09:29.760Z,-3.90
2023-12-07T15:11:57.537Z,-3.90
2023-12-07T15:14:33.606Z,-3.90
2023-12-07T15:17:06.063Z,-3.80
2023-12-07T15:19:35.040Z,-3.80
2023-12-07T15:22:02.469Z,-3.80
2023-12-07T15:24:35.134Z,-3.80
2023-12-07T15:27:07.225Z,-3.80
2023-12-07T15:29:36.222Z,-3.90
2023-12-07T15:32:04.468Z,-3.80
2023-12-07T15:34:38.233Z,-3.80
2023-12-07T15:37:07.927Z,-3.80
2023-12-07T15:39:34.928Z,-3.80
2023-12-07T15:42:04.626Z,-3.80
2023-12-07T15:44:32.622Z,-3.70
2023-12-07T15:47:00.561Z,-3.80
2023-12-07T15:49:28.011Z,-3.70
2023-12-07T15:51:57.583Z,-3.70
2023-12-07T15:54:35.179Z,-3.70
2023-12-07T15:57:07.733Z,-3.80
2023-12-07T15:59:35.353Z,-3.90
2023-12-07T16:02:04.253Z,-3.80
2023-12-07T16:04:34.193Z,-3.80
2023-12-07T16:07:06.827Z,-3.70
2023-12-07T16:09:35.970Z,-3.70
2023-12-07T16:12:03.438Z,-3.60
2023-12-07T16:14:31.674Z,-3.60
2023-12-07T16:17:00.145Z,-3.70
2023-12-07T16:19:28.711Z,-3.80
2023-12-07T16:21:56.490Z,-3.80
2023-12-07T16:24:23.901Z,-3.70
2023-12-07T16:26:53.074Z,-3.70
2023-12-07T16:29:20.326Z,-3.70
2023-12-07T16:31:47.352Z,-3.70
2023-12-07T16:34:14.662Z,-3.60
2023-12-07T16:36:42.011Z,-3.60
2023-12-07T16:39:09.311Z,-3.70
2023-12-07T16:41:41.539Z,-3.60
2023-12-07T16:44:12.857Z,-3.60
2023-12-07T16:46:46.976Z,-3.60
2023-12-07T16:49:15.052Z,-3.60
2023-12-07T16:51:42.493Z,-3.50
2023-12-07T16:54:10.062Z,-3.50
2023-12-07T16:56:37.313Z,-3.50
2023-12-07T16:59:04.434Z,-3.50
2023-12-07T17:01:31.335Z,-3.50
2023-12-07T17:03:58.574Z,-3.50
2023-12-07T17:06:26.052Z,-3.50
2023-12-07T17:09:07.478Z,-3.60
2023-12-07T17:11:39.612Z,-3.50
2023-12-07T17:14:06.716Z,-3.50
2023-12-07T17:16:33.994Z,-3.50
2023-12-07T17:19:02.857Z,-3.60
2023-12-07T17:21:31.312Z,-3.60
2023-12-07T17:24:02.152Z,-3.50
2023-12-07T17:26:36.184Z,-3.40
2023-12-07T17:29:07.226Z,-3.50
2023-12-07T17:31:34.318Z,-3.60
2023-12-07T17:34:01.809Z,-3.60
2023-12-07T17:36:29.049Z,-3.60
2023-12-07T17:38:56.484Z,-3.70
2023-12-07T17:41:23.818Z,-3.60
2023-12-07T17:43:52.523Z,-3.60
2023-12-07T17:46:19.883Z,-3.50
2023-12-07T17:48:49.702Z,-3.50
2023-12-07T17:51:17.237Z,-3.60
2023-12-07T17:53:44.380Z,-3.50
2023-12-07T17:56:12.000Z,-3.50
2023-12-07T17:58:38.945Z,-3.40
2023-12-07T18:01:06.090Z,-3.50
2023-12-07T18:03:33.158Z,-3.50
2023-12-07T18:06:00.265Z,-3.60
2023-12-07T18:08:27.376Z,-3.60
2023-12-07T18:10:54.359Z,-3.60
2023-12-07T18:13:21.290Z,-3.60
2023-12-07T18:15:48.264Z,-3.70
2023-12-07T18:18:15.874Z,-3.50
2023-12-07T18:20:43.903Z,-3.50
2023-12-07T18:23:11.113Z,-3.50
2023-12-07T18:25:38.385Z,-3.40
2023-12-07T18:28:05.307Z,-3.40
2023-12-07T18:30:32.284Z,-3.40
2023-12-07T18:32:59.599Z,-3.40
2023-12-07T18:35:26.724Z,-3.50
2023-12-07T18:37:53.741Z,-3.50
2023-12-07T18:40:20.724Z,-3.40
2023-12-07T18:42:47.711Z,-3.40
2023-12-07T18:45:15.289Z,-3.40
2023-12-07T18:47:42.402Z,-3.50
2023-12-07T18:50:10.122Z,-3.50
2023-12-07T18:52:37.876Z,-3.50
2023-12-07T18:55:05.178Z,-3.50
2023-12-07T18:57:32.231Z,-3.40
2023-12-07T18:59:59.388Z,-3.40
2023-12-07T19:02:26.561Z,-3.50
2023-12-07T19:04:53.726Z,-3.40
2023-12-07T19:07:22.644Z,-3.40
2023-12-07T19:09:49.894Z,-3.40
2023-12-07T19:12:16.793Z,-3.40
2023-12-07T19:14:43.870Z,-3.40
2023-12-07T19:17:10.883Z,-3.50
2023-12-07T19:19:37.806Z,-3.40
2023-12-07T19:22:05.173Z,-3.40
2023-12-07T19:24:32.380Z,-3.30
2023-12-07T19:27:00.967Z,-3.30
2023-12-07T19:29:29.554Z,-3.30
2023-12-07T19:32:06.249Z,-3.40
2023-12-07T19:34:33.228Z,-3.30
2023-12-07T19:37:00.230Z,-3.30
2023-12-07T19:39:28.496Z,-3.20
2023-12-07T19:41:55.605Z,-3.30
2023-12-07T19:44:22.602Z,-3.30
2023-12-07T19:46:49.478Z,-3.20
2023-12-07T19:49:16.515Z,-3.20
2023-12-07T19:51:45.961Z,-3.20
2023-12-07T19:54:12.980Z,-3.10
2023-12-07T19:56:40.039Z,-3.10
2023-12-07T19:59:07.008Z,-3.10
2023-12-07T20:01:33.952Z,-3.10
2023-12-07T20:04:01.256Z,-3.20
2023-12-07T20:06:34.241Z,-3.20
2023-12-07T20:09:07.141Z,-3.20
2023-12-07T20:11:35.168Z,-3.20
2023-12-07T20:14:02.197Z,-3.20
2023-12-07T20:16:29.563Z,-3.20
2023-12-07T20:18:56.549Z,-3.20
2023-12-07T20:21:23.536Z,-3.30
2023-12-07T20:23:50.618Z,-3.30
2023-12-07T20:26:17.961Z,-3.30
2023-12-07T20:28:47.200Z,-3.30
2023-12-07T20:31:17.797Z,-3.30
2023-12-07T20:33:45.136Z,-3.30
2023-12-07T20:36:13.310Z,-3.30
2023-12-07T20:38:40.370Z,-3.30
2023-12-07T20:41:07.976Z,-3.30
2023-12-07T20:43:35.012Z,-3.30
2023-12-07T20:46:04.085Z,-3.20
2023-12-07T20:48:31.310Z,-3.20
2023-12-07T20:50:59.007Z,-3.20
2023-12-07T20:53:27.463Z,-3.30
2023-12-07T20:55:55.020Z,-3.30
2023-12-07T20:58:22.796Z,-3.30
2023-12-07T21:00:50.262Z,-3.20
2023-12-07T21:03:17.603Z,-3.20
2023-12-07T21:05:45.532Z,-3.20
2023-12-07T21:08:12.650Z,-3.30
2023-12-07T21:10:39.584Z,-3.20
2023-12-07T21:13:06.891Z,-3.10
2023-12-07T21:15:35.976Z,-3.20
2023-12-07T21:18:03.245Z,-3.20
2023-12-07T21:20:30.389Z,-3.20
2023-12-07T21:22:57.393Z,-3.10
2023-12-07T21:25:25.125Z,-3.10
2023-12-07T21:27:52.220Z,-3.20
2023-12-07T21:30:20.213Z,-3.20
2023-12-07T21:32:47.472Z,-3.10
2023-12-07T21:35:14.831Z,-3.10
2023-12-07T21:37:42.208Z,-3.10
2023-12-07T21:40:09.594Z,-3.00
2023-12-07T21:42:36.487Z,-3.10
2023-12-07T21:45:05.233Z,-3.10
2023-12-07T21:47:32.434Z,-3.00
2023-12-07T21:49:59.563Z,-3.10
2023-12-07T21:52:26.787Z,-3.00
2023-12-07T21:54:53.705Z,-3.00
2023-12-07T21:57:21.401Z,-3.00
2023-12-07T21:59:51.240Z,-3.10
2023-12-07T22:02:19.023Z,-3.00
2023-12-07T22:04:46.088Z,-2.90
2023-12-07T22:07:13.143Z,-2.90
2023-12-07T22:09:40.639Z,-2.90
2023-12-07T22:12:09.123Z,-3.00
2023-12-07T22:14:39.756Z,-2.90
2023-12-07T22:17:07.564Z,-2.90
2023-12-07T22:19:35.070Z,-2.90
2023-12-07T22:22:02.215Z,-2.80
2023-12-07T22:24:29.625Z,-2.80
2023-12-07T22:26:57.093Z,-2.90
2023-12-07T22:29:25.264Z,-2.90
2023-12-07T22:31:53.284Z,-2.90
2023-12-07T22:34:20.353Z,-2.90
2023-12-07T22:36:47.950Z,-2.90
2023-12-07T22:39:14.869Z,-2.90
2023-12-07T22:41:41.743Z,-2.80
2023-12-07T22:44:09.197Z,-2.90
2023-12-07T22:46:36.080Z,-2.80
2023-12-07T22:49:03.082Z,-2.90
2023-12-07T22:51:30.803Z,-2.80
2023-12-07T22:53:57.784Z,-2.90
2023-12-07T22:56:24.906Z,-2.80
2023-12-07T22:58:51.887Z,-2.80
2023-12-07T23:01:18.832Z,-2.80
2023-12-07T23:03:45.805Z,-2.70
2023-12-07T23:06:13.757Z,-2.70
2023-12-07T23:08:40.766Z,-2.70
2023-12-07T23:11:07.749Z,-2.70
2023-12-07T23:13:34.869Z,-2.60
2023-12-07T23:16:02.147Z,-2.60
2023-12-07T23:18:29.362Z,-2.70
2023-12-07T23:20:56.348Z,-2.50
2023-12-07T23:23:25.328Z,-2.50
2023-12-07T23:25:52.196Z,-2.50
2023-12-07T23:28:19.730Z,-2.60
2023-12-07T23:30:46.712Z,-2.50
2023-12-07T23:33:13.797Z,-2.50
2023-12-07T23:35:40.784Z,-2.60
2023-12-07T23:38:08.977Z,-2.60
2023-12-07T23:40:35.889Z,-2.60
2023-12-07T23:43:02.833Z,-2.60
2023-12-07T23:45:29.698Z,-2.50
2023-12-07T23:47:56.707Z,-2.60
2023-12-07T23:50:23.809Z,-2.60
2023-12-07T23:52:50.697Z,-2.60
2023-12-07T23:55:17.769Z,-2.60
2023-12-07T23:57:44.801Z,-2.60
